CheckWX is a tool to help pilots better visualize weather data.  It is not intended as a substitute for an official pre-flight weather briefing.

04:05:00 UTC

EBBR METAR
Brussels Airport
Brussels, Belgium
Current

45 mins ago

EBBR 260320Z 17001KT CAVOK 08/07 Q1035 NOSIG
Observed
May-26 @ 03:20 UTC
Wind
  • 170° at 1 KTS
Visibility
10,000+ meters
Flight Rules
VFR
Cloud Levels
  • Clear skies
Temperature
C / 46°F
Dewpoint
C / 45°F
Humidity
93%
Altimeter
30.56" Hg
Pressure
1034.92 hPa
Previous

1 hour ago

EBBR 260250Z 00000KT CAVOK 10/07 Q1035 NOSIG
Observed
May-26 @ 02:50 UTC
Visibility
10,000+ meters
Flight Rules
VFR
Cloud Levels
  • Clear skies
Temperature
10°C / 50°F
Dewpoint
C / 45°F
Humidity
82%
Altimeter
30.56" Hg
Pressure
1034.92 hPa
Previous

2 hours ago

EBBR 260220Z VRB01KT CAVOK 09/07 Q1035 NOSIG
Observed
May-26 @ 02:20 UTC
Wind
  • Variable at 1 KTS
Visibility
10,000+ meters
Flight Rules
VFR
Cloud Levels
  • Clear skies
Temperature
C / 48°F
Dewpoint
C / 45°F
Humidity
87%
Altimeter
30.56" Hg
Pressure
1034.92 hPa